M I D A S
Marine Information and Data Acquisition System
Tripno 65 of the Zeeleeuw from 2001-10-30 07:18:24 to 2001-10-30 16:50:00
Back to CruiseResearch ActivitiesStationsMapUnderway DataData graphs

EquipmentUnitsComments
TimeDGPSUTC
LatitudeDGPSDM.mWGS84
LongitudeDGPSDM.mWGS84
SpeedMeteo Stationm/sRelative wind speed
DirectionMeteo StationdegRelative wind direction
TemperatureMeteo Stationdeg CelciusAir temperature
PressureMeteo StationPaAtmospheric pressure
HumidityMeteo Station%Relative humidity
Missing or incorrect values are displayed as -999
Metereological data collected by the RV Zeeleeuw from 2001-10-30 07:18:24 to 2001-10-30 16:50:00
                                                                                    Next 1000 lines
Time Latitude Longitude Speed Direction Temperature Pressure Humidity
2001-10-30 07:18:34 51°13.639 2°56.013 -999 -999 -999 -999 -999
2001-10-30 07:18:39 51°13.639 2°56.013 -999 -999 -999 -999 -999
2001-10-30 07:18:44 51°13.639 2°56.013 -999 -999 -999 -999 -999
2001-10-30 07:18:49 51°13.639 2°56.013 -999 -999 -999 -999 -999
2001-10-30 07:18:54 51°13.639 2°56.013   299 -999 -999 -999
2001-10-30 07:19:18 51°13.639 2°56.013 3.2 268 12.3 -999 81
2001-10-30 07:19:21 51°13.639 2°56.013 3.7 282 12.3 -999 81
2001-10-30 07:19:24 51°13.639 2°56.013 4.6 283 12.3 -999 81
2001-10-30 07:19:29 51°13.639 2°56.013 5.3 302 12.3 -999 81
2001-10-30 07:19:34 51°13.639 2°56.013 4.2 280 12.3 101950 81
2001-10-30 07:19:38 51°13.639 2°56.013 4.3 289 12.3 101950 81
2001-10-30 07:19:44 51°13.639 2°56.013 4.8 302 12.3 101950 81
2001-10-30 07:19:49 51°13.639 2°56.013 5 309 12.3 101950 81
2001-10-30 07:19:54 51°13.639 2°56.013 3.4 286 12.3 101940 81
2001-10-30 07:19:59 51°13.639 2°56.013 3.3 292 12.3 101940 81
2001-10-30 07:20:04 51°13.639 2°56.013 4.2 314 12.3 101940 81
2001-10-30 07:20:09 51°13.639 2°56.013 4.3 292 12.3 101940 81
2001-10-30 07:20:14 51°13.639 2°56.013 4.1 292 12.3 101940 81
2001-10-30 07:20:19 51°13.639 2°56.013 4 286 12.3 101940 81
2001-10-30 07:20:24 51°13.639 2°56.013 4.7 296 12.3 101950 81
2001-10-30 07:20:29 51°13.639 2°56.013 6.3 302 12.3 101950 81
2001-10-30 07:20:34 51°13.639 2°56.013 5.2 307 12.2 101950 81
2001-10-30 07:20:39 51°13.639 2°56.013 4.6 277 12.2 101950 81
2001-10-30 07:20:44 51°13.639 2°56.013 5.2 289 12.2 101950 81
2001-10-30 07:20:49 51°13.639 2°56.013 3.3 301 12.2 101950 81
2001-10-30 07:20:54 51°13.639 2°56.013 3.9 293 12.2 101940 81
2001-10-30 07:20:59 51°13.639 2°56.013 4.5 294 12.2 101940 81
2001-10-30 07:21:04 51°13.638 2°56.013 4.5 257 12.3 101940 81
2001-10-30 07:21:09 51°13.639 2°56.013 3.3 279 12.3 101940 81
2001-10-30 07:21:14 51°13.639 2°56.013 4.1 300 12.2 101950 81
2001-10-30 07:21:19 51°13.639 2°56.013 5.8 308 12.2 101950 81
2001-10-30 07:21:24 51°13.639 2°56.013 4.3 288 12.2 101950 81
2001-10-30 07:21:29 51°13.639 2°56.013 3.6 306 12.2 101950 81
2001-10-30 07:21:34 51°13.639 2°56.013 4.3 270 12.2 101950 81
2001-10-30 07:21:39 51°13.639 2°56.014 3.4 260 12.2 101950 81
2001-10-30 07:21:44 51°13.639 2°56.014 3.9 284 12.2 101940 81
2001-10-30 07:21:49 51°13.639 2°56.014 3.2 300 12.2 101940 81
2001-10-30 07:21:54 51°13.639 2°56.014 4.3 290 12.3 101940 81
2001-10-30 07:21:59 51°13.639 2°56.014 3.8 299 12.3 101940 81
2001-10-30 07:22:04 51°13.639 2°56.014 3.7 281 12.3 101940 81
2001-10-30 07:22:09 51°13.639 2°56.014 4.2 285 12.3 101940 81
2001-10-30 07:22:14 51°13.639 2°56.014 4.4 288 12.3 101950 81
2001-10-30 07:22:19 51°13.639 2°56.014 4.9 289 12.3 101950 81
2001-10-30 07:22:24 51°13.639 2°56.014 3.3 271 12.3 101950 81
2001-10-30 07:22:29 51°13.639 2°56.013 5 312 12.3 101950 81
2001-10-30 07:22:34 51°13.639 2°56.013 5.4 327 12.3 101940 81
2001-10-30 07:22:39 51°13.639 2°56.013 4.8 303 12.3 101940 81
2001-10-30 07:22:44 51°13.639 2°56.013 4.6 306 12.3 101950 81
2001-10-30 07:22:49 51°13.639 2°56.013 4.3 256 12.3 101950 81
2001-10-30 07:22:54 51°13.639 2°56.013 3.5 296 12.3 101950 81
2001-10-30 07:22:58 51°13.639 2°56.013 4.5 295 12.3 101950 81
2001-10-30 07:23:04 51°13.639 2°56.014 3.2 282 12.3 101950 81
2001-10-30 07:23:09 51°13.639 2°56.014 3.1 261 12.3 101950 81
2001-10-30 07:23:14 51°13.639 2°56.014 3.3 271 12.3 101950 81
2001-10-30 07:23:19 51°13.639 2°56.014 3.3 300 12.3 101950 81
2001-10-30 07:23:24 51°13.639 2°56.014 3.3 297 12.3 101950 81
2001-10-30 07:23:29 51°13.639 2°56.014 4.3 305 12.3 101950 81
2001-10-30 07:23:34 51°13.639 2°56.014 4.6 286 12.3 101950 81
2001-10-30 07:23:39 51°13.639 2°56.013 4.8 287 12.3 101950 81
2001-10-30 07:23:44 51°13.639 2°56.013 4.2 290 12.3 101950 81
2001-10-30 07:23:49 51°13.639 2°56.013 5.3 259 12.3 101950 81
2001-10-30 07:23:54 51°13.639 2°56.013 4.4 308 12.3 101950 81
2001-10-30 07:23:59 51°13.639 2°56.013 3.6 279 12.3 101950 81
2001-10-30 07:24:04 51°13.639 2°56.013 3.8 279 12.3 101950 81
2001-10-30 07:24:09 51°13.639 2°56.013 3.7 297 12.3 101950 81
2001-10-30 07:24:14 51°13.639 2°56.013 4.1 283 12.3 101950 81
2001-10-30 07:24:19 51°13.639 2°56.013 4.2 292 12.3 101950 81
2001-10-30 07:24:24 51°13.639 2°56.013 4 284 12.3 101950 81
2001-10-30 07:24:29 51°13.639 2°56.013 4.4 303 12.3 101950 81
2001-10-30 07:24:34 51°13.639 2°56.013 5.5 289 12.3 101950 81
2001-10-30 07:24:39 51°13.639 2°56.014 4.9 284 12.3 101950 81
2001-10-30 07:24:44 51°13.639 2°56.014 5.7 294 12.3 101950 80
2001-10-30 07:24:49 51°13.639 2°56.014 4.8 293 12.3 101950 80
2001-10-30 07:24:54 51°13.639 2°56.014 5.3 267 12.3 101950 80
2001-10-30 07:24:59 51°13.639 2°56.014 4.3 271 12.3 101950 80
2001-10-30 07:25:04 51°13.639 2°56.014 4.2 275 12.3 101950 80
2001-10-30 07:25:09 51°13.639 2°56.014 6.2 263 12.3 101950 80
2001-10-30 07:25:14 51°13.639 2°56.014 4.2 275 12.3 101950 80
2001-10-30 07:25:19 51°13.639 2°56.014 4.8 249 12.3 101950 80
2001-10-30 07:25:24 51°13.639 2°56.013 4.2 285 12.3 101950 80
2001-10-30 07:25:29 51°13.639 2°56.013 4.4 288 12.3 101950 80
2001-10-30 07:25:34 51°13.639 2°56.013 3.6 288 12.3 101950 80
2001-10-30 07:25:39 51°13.639 2°56.013 4.2 301 12.3 101950 80
2001-10-30 07:25:44 51°13.639 2°56.013 4.8 291 12.3 101950 80
2001-10-30 07:25:49 51°13.639 2°56.013 3.1 288 12.3 101950 80
2001-10-30 07:25:54 51°13.639 2°56.013 3.6 291 12.3 101950 80
2001-10-30 07:25:59 51°13.639 2°56.013 3 278 12.3 101950 80
2001-10-30 07:26:04 51°13.639 2°56.013 2.6 293 12.3 101950 80
2001-10-30 07:26:09 51°13.639 2°56.013 2.2 274 12.3 101950 80
2001-10-30 07:26:14 51°13.639 2°56.013 3.7 305 12.3 101950 80
2001-10-30 07:26:19 51°13.639 2°56.013 3.6 294 12.3 101950 80
2001-10-30 07:26:24 51°13.639 2°56.013 4.7 290 12.3 101950 81
2001-10-30 07:26:29 51°13.639 2°56.013 4.8 290 12.3 101950 81
2001-10-30 07:26:34 51°13.639 2°56.013 5 308 12.3 101950 81
2001-10-30 07:26:40 51°13.639 2°56.013 5.8 279 12.3 101950 81
2001-10-30 07:26:44 51°13.639 2°56.013 6.2 283 12.3 101950 80
2001-10-30 07:26:49 51°13.639 2°56.013 5.5 253 12.3 101950 80
2001-10-30 07:26:54 51°13.639 2°56.013 5.9 251 12.3 101950 80
2001-10-30 07:26:59 51°13.639 2°56.013 5.3 269 12.3 101950 80
2001-10-30 07:27:04 51°13.639 2°56.013 4.3 291 12.3 101950 80
2001-10-30 07:27:09 51°13.639 2°56.013 5.5 277 12.3 101950 80
2001-10-30 07:27:14 51°13.639 2°56.013 5.3 243 12.3 101950 80
2001-10-30 07:27:19 51°13.639 2°56.013 4.9 256 12.3 101950 80
2001-10-30 07:27:24 51°13.639 2°56.014 4.2 276 12.3 101950 80
2001-10-30 07:27:29 51°13.639 2°56.014 5.5 301 12.3 101950 80
2001-10-30 07:27:34 51°13.639 2°56.014 4.7 293 12.3 101950 80
2001-10-30 07:27:39 51°13.639 2°56.014 3.5 269 12.3 101950 80
2001-10-30 07:27:44 51°13.639 2°56.014 3.7 293 12.3 101950 80
2001-10-30 07:27:49 51°13.639 2°56.014 4.2 288 12.3 101950 80
2001-10-30 07:27:54 51°13.639 2°56.014 4.7 290 12.3 101950 80
2001-10-30 07:27:59 51°13.639 2°56.014 5.8 302 12.3 101950 80
2001-10-30 07:28:04 51°13.639 2°56.014 4.3 284 12.3 101950 80
2001-10-30 07:28:09 51°13.639 2°56.014 5.8 294 12.3 101950 80
2001-10-30 07:28:14 51°13.639 2°56.014 5.1 297 12.3 101950 80
2001-10-30 07:28:18 51°13.639 2°56.014 5.4 298 12.3 101950 80
2001-10-30 07:28:24 51°13.639 2°56.014 4.4 294 12.3 101950 80
2001-10-30 07:28:29 51°13.639 2°56.014 5.2 287 12.3 101950 80
2001-10-30 07:28:34 51°13.639 2°56.014 6.2 299 12.3 101940 80
2001-10-30 07:28:39 51°13.639 2°56.014 6.8 306 12.3 101940 80
2001-10-30 07:28:44 51°13.639 2°56.013 5.1 311 12.3 101950 80
2001-10-30 07:28:49 51°13.639 2°56.013 3.5 283 12.3 101950 80
2001-10-30 07:28:54 51°13.639 2°56.013 4.4 287 12.3 101950 80
2001-10-30 07:28:59 51°13.639 2°56.013 5 286 12.3 101950 80
2001-10-30 07:29:04 51°13.639 2°56.013 5.2 284 12.3 101940 80
2001-10-30 07:29:09 51°13.639 2°56.013 5.7 285 12.3 101940 80
2001-10-30 07:29:14 51°13.639 2°56.013 5.6 260 12.3 101950 80
2001-10-30 07:29:19 51°13.639 2°56.014 5 310 12.3 101950 80
2001-10-30 07:29:24 51°13.639 2°56.014 5.6 306 12.3 101950 80
2001-10-30 07:29:29 51°13.639 2°56.014 6 294 12.3 101950 80
2001-10-30 07:29:34 51°13.639 2°56.014 5.2 296 12.3 101950 80
2001-10-30 07:29:39 51°13.639 2°56.014 5.3 300 12.3 101950 80
2001-10-30 07:29:44 51°13.639 2°56.014 4.6 298 12.3 101950 80
2001-10-30 07:29:49 51°13.639 2°56.014 4.2 271 12.3 101950 80
2001-10-30 07:29:54 51°13.639 2°56.014 3.1 291 12.3 101950 80
2001-10-30 07:29:59 51°13.639 2°56.014 4.2 299 12.3 101950 80
2001-10-30 07:30:04 51°13.639 2°56.014 4 300 12.3 101950 80
2001-10-30 07:30:09 51°13.639 2°56.014 3.6 295 12.3 101950 80
2001-10-30 07:30:14 51°13.639 2°56.014 4.9 300 12.3 101950 80
2001-10-30 07:30:19 51°13.639 2°56.014 3.8 286 12.3 101950 80
2001-10-30 07:30:24 51°13.639 2°56.014 3.9 277 12.3 101950 80
2001-10-30 07:30:29 51°13.639 2°56.014 2.7 267 12.3 101950 80
2001-10-30 07:30:34 51°13.639 2°56.013 4.2 291 12.3 101950 81
2001-10-30 07:30:39 51°13.639 2°56.013 5.6 311 12.3 101950 81
2001-10-30 07:30:44 51°13.639 2°56.013 4.8 296 12.3 101950 81
2001-10-30 07:30:49 51°13.639 2°56.013 4.3 284 12.3 101950 81
2001-10-30 07:30:54 51°13.639 2°56.013 4.4 301 12.3 101950 81
2001-10-30 07:30:59 51°13.639 2°56.013 5.1 303 12.3 101950 81
2001-10-30 07:31:04 51°13.639 2°56.013 3.3 296 12.2 101950 81
2001-10-30 07:31:09 51°13.639 2°56.013 4.2 308 12.2 101950 81
2001-10-30 07:31:14 51°13.639 2°56.013 5.1 302 12.3 101950 81
2001-10-30 07:31:18 51°13.639 2°56.013 5.5 293 12.3 101950 81
2001-10-30 07:31:24 51°13.639 2°56.013 4.1 297 12.3 101950 81
2001-10-30 07:31:29 51°13.639 2°56.013 3.9 292 12.3 101950 81
2001-10-30 07:31:34 51°13.639 2°56.013 4.9 302 12.2 101950 81
2001-10-30 07:31:38 51°13.639 2°56.013 4.4 312 12.2 101950 81
2001-10-30 07:31:44 51°13.639 2°56.013 4.9 287 12.2 101940 81
2001-10-30 07:31:49 51°13.639 2°56.013 4.1 263 12.2 101940 81
2001-10-30 07:31:54 51°13.639 2°56.013 4.2 273 12.2 101950 81
2001-10-30 07:31:59 51°13.639 2°56.013 4.7 291 12.2 101950 81
2001-10-30 07:32:04 51°13.639 2°56.013 4.1 290 12.2 101940 81
2001-10-30 07:32:09 51°13.639 2°56.013 3.4 303 12.2 101940 81
2001-10-30 07:32:14 51°13.639 2°56.013 3.9 317 12.2 101940 81
2001-10-30 07:32:19 51°13.639 2°56.013 3.5 295 12.2 101940 81
2001-10-30 07:32:24 51°13.639 2°56.013 3.8 297 12.2 101950 81
2001-10-30 07:32:29 51°13.639 2°56.013 3.7 292 12.2 101950 81
2001-10-30 07:32:34 51°13.639 2°56.013 4.1 298 12.2 101950 81
2001-10-30 07:32:39 51°13.639 2°56.013 3.2 285 12.2 101950 81
2001-10-30 07:32:44 51°13.639 2°56.013 4.6 302 12.2 101950 81
2001-10-30 07:32:49 51°13.639 2°56.013 5.2 315 12.2 101950 81
2001-10-30 07:32:54 51°13.639 2°56.013 4.2 288 12.2 101950 81
2001-10-30 07:32:59 51°13.639 2°56.013 4 292 12.2 101950 81
2001-10-30 07:33:04 51°13.639 2°56.013 3.5 280 12.2 101950 81
2001-10-30 07:33:09 51°13.639 2°56.013 4.2 293 12.2 101950 81
2001-10-30 07:33:14 51°13.639 2°56.013 5.2 298 12.2 101950 82
2001-10-30 07:33:19 51°13.639 2°56.013 3.1 287 12.2 101950 82
2001-10-30 07:33:24 51°13.639 2°56.013 5.2 289 12.2 101950 81
2001-10-30 07:33:29 51°13.639 2°56.013 4.6 273 12.2 101950 81
2001-10-30 07:33:34 51°13.639 2°56.013 3.4 283 12.2 101940 81
2001-10-30 07:33:38 51°13.639 2°56.013 5.3 298 12.2 101940 81
2001-10-30 07:33:44 51°13.639 2°56.013 5.5 292 12.2 101940 81
2001-10-30 07:33:49 51°13.639 2°56.013 5.4 292 12.2 101940 81
2001-10-30 07:33:54 51°13.639 2°56.013 6 298 12.2 101940 81
2001-10-30 07:33:59 51°13.639 2°56.013 6 288 12.2 101940 81
2001-10-30 07:34:04 51°13.639 2°56.013 6.2 298 12.2 101940 81
2001-10-30 07:34:09 51°13.639 2°56.013 4.7 298 12.2 101940 81
2001-10-30 07:34:14 51°13.639 2°56.013 5.1 284 12.1 101950 81
2001-10-30 07:34:19 51°13.639 2°56.012 4.3 285 12.1 101950 81
2001-10-30 07:34:24 51°13.639 2°56.012 3.2 298 12.1 101940 81
2001-10-30 07:34:29 51°13.64 2°56.012 4 301 12.1 101940 81
2001-10-30 07:34:34 51°13.64 2°56.012 5 283 12.1 101940 81
2001-10-30 07:34:39 51°13.64 2°56.012 5.3 304 12.1 101940 81
2001-10-30 07:34:44 51°13.64 2°56.012 4.9 292 12.1 101940 81
2001-10-30 07:34:49 51°13.64 2°56.012 4.2 288 12.1 101940 81
2001-10-30 07:34:54 51°13.64 2°56.012 3.5 302 12.1 101940 81
2001-10-30 07:34:59 51°13.639 2°56.012 4 291 12.1 101940 81
2001-10-30 07:35:04 51°13.64 2°56.012 2.9 289 12.1 101940 81
2001-10-30 07:35:09 51°13.639 2°56.012 4.4 256 12.1 101940 81
2001-10-30 07:35:14 51°13.64 2°56.012 4.6 273 12.1 101940 81
2001-10-30 07:35:19 51°13.639 2°56.012 3.8 283 12.1 101940 81
2001-10-30 07:35:24 51°13.639 2°56.012 4.7 297 12.1 101940 81
2001-10-30 07:35:29 51°13.64 2°56.012 6.1 295 12.1 101940 81
2001-10-30 07:35:34 51°13.64 2°56.013 5.5 295 12.1 101940 81
2001-10-30 07:35:39 51°13.639 2°56.012 5.6 306 12.1 101940 81
2001-10-30 07:35:44 51°13.64 2°56.012 6.3 305 12.1 101940 82
2001-10-30 07:35:49 51°13.64 2°56.012 7.1 297 12.1 101940 82
2001-10-30 07:35:54 51°13.64 2°56.012 5 292 12.1 101940 81
2001-10-30 07:35:59 51°13.64 2°56.012 5.7 290 12.1 101940 81
2001-10-30 07:36:04 51°13.64 2°56.012 5.7 292 12.1 101940 81
2001-10-30 07:36:09 51°13.64 2°56.012 4 303 12.1 101940 81
2001-10-30 07:36:14 51°13.64 2°56.012 3.8 298 12.1 101940 81
2001-10-30 07:36:19 51°13.64 2°56.012 4.5 313 12.1 101940 81
2001-10-30 07:36:24 51°13.64 2°56.012 4.6 293 12.1 101940 81
2001-10-30 07:36:29 51°13.64 2°56.012 4.1 292 12.1 101940 81
2001-10-30 07:36:34 51°13.64 2°56.012 3.6 261 12.1 101940 81
2001-10-30 07:36:39 51°13.64 2°56.012 2.8 303 12.1 101940 81
2001-10-30 07:36:44 51°13.64 2°56.012 5 289 12.1 101940 81
2001-10-30 07:36:49 51°13.64 2°56.012 4.9 305 12.1 101940 81
2001-10-30 07:36:54 51°13.64 2°56.012 3.8 307 12.1 101940 82
2001-10-30 07:36:59 51°13.639 2°56.012 4.7 290 12.1 101940 82
2001-10-30 07:37:04 51°13.639 2°56.011 5.2 323 12.1 101940 82
2001-10-30 07:37:09 51°13.639 2°56.011 4.9 291 12.1 101940 82
2001-10-30 07:37:13 51°13.64 2°56.011 6.2 289 12.1 101940 82
2001-10-30 07:37:19 51°13.64 2°56.011 4.8 295 12.1 101940 82
2001-10-30 07:37:24 51°13.64 2°56.011 6 293 12.1 101940 82
2001-10-30 07:37:29 51°13.64 2°56.011 4.7 287 12.1 101940 82
2001-10-30 07:37:34 51°13.64 2°56.011 5.2 312 12.1 101940 82
2001-10-30 07:37:39 51°13.64 2°56.011 5 300 12.1 101940 82
2001-10-30 07:37:44 51°13.64 2°56.011 3.1 284 12.1 101940 82
2001-10-30 07:37:49 51°13.64 2°56.011 4.6 306 12.1 101940 82
2001-10-30 07:37:54 51°13.64 2°56.011 2.2 292 12.1 101940 81
2001-10-30 07:37:59 51°13.639 2°56.011 3.7 259 12.1 101940 81
2001-10-30 07:38:04 51°13.639 2°56.01 4 294 12.1 101940 82
2001-10-30 07:38:09 51°13.639 2°56.01 3 264 12.1 101940 82
2001-10-30 07:38:14 51°13.639 2°56.011 4.2 302 12.1 101940 82
2001-10-30 07:38:19 51°13.639 2°56.01 5 299 12.1 101940 82
2001-10-30 07:38:24 51°13.639 2°56.01 4.5 276 12.1 101940 82
2001-10-30 07:38:29 51°13.639 2°56.01 4.6 302 12.1 101940 82
2001-10-30 07:38:34 51°13.639 2°56.01 3.5 301 12.1 101940 82
2001-10-30 07:38:39 51°13.639 2°56.01 5.6 310 12.1 101940 82
2001-10-30 07:38:44 51°13.639 2°56.01 4.8 307 12.1 101930 82
2001-10-30 07:38:49 51°13.639 2°56.01 3.6 285 12.1 101930 82
2001-10-30 07:38:54 51°13.639 2°56.009 3.6 316 12.1 101940 82
2001-10-30 07:38:59 51°13.639 2°56.009 4.2 320 12.1 101940 82
2001-10-30 07:39:04 51°13.639 2°56.009 4.7 306 12.1 101940 82
2001-10-30 07:39:09 51°13.639 2°56.009 4 303 12.1 101940 82
2001-10-30 07:39:14 51°13.638 2°56.008 4.4 310 12.1 101940 82
2001-10-30 07:39:19 51°13.638 2°56.008 3.5 291 12.1 101940 82
2001-10-30 07:39:24 51°13.638 2°56.008 3.8 301 12.1 101940 82
2001-10-30 07:39:29 51°13.638 2°56.007 4.2 316 12.1 101940 82
2001-10-30 07:39:34 51°13.638 2°56.007 4.3 315 12.1 101940 82
2001-10-30 07:39:39 51°13.638 2°56.007 3.3 298 12.1 101940 82
2001-10-30 07:39:45 51°13.638 2°56.007 3.9 295 12.1 101940 82
2001-10-30 07:39:50 51°13.638 2°56.007 5.9 315 12.1 101940 82
2001-10-30 07:39:55 51°13.637 2°56.007 6.4 319 12.1 101940 82
2001-10-30 07:40:00 51°13.637 2°56.008 6 321 12.1 101940 82
2001-10-30 07:40:05 51°13.637 2°56.008 7.1 324 12.1 101940 82
2001-10-30 07:40:10 51°13.636 2°56.009 6.8 313 12.1 101940 82
2001-10-30 07:40:15 51°13.635 2°56.011 6.4 319 12.1 101940 82
2001-10-30 07:40:20 51°13.633 2°56.013 7.2 318 12.1 101940 82
2001-10-30 07:40:25 51°13.63 2°56.017 8.6 324 12.1 101930 82
2001-10-30 07:40:29 51°13.628 2°56.02 9 325 12.1 101930 82
2001-10-30 07:40:34 51°13.625 2°56.025 7.6 318 12.1 101930 82
2001-10-30 07:40:38 51°13.623 2°56.028 6.6 317 12.1 101930 82
2001-10-30 07:40:44 51°13.619 2°56.034 6.3 308 12.1 101930 82
2001-10-30 07:40:49 51°13.616 2°56.04 6.1 305 12.1 101930 82
2001-10-30 07:40:54 51°13.612 2°56.045 5.3 308 12 101930 82
2001-10-30 07:40:59 51°13.608 2°56.051 5.7 303 12 101930 82
2001-10-30 07:41:04 51°13.605 2°56.057 4.2 309 12.1 101930 82
2001-10-30 07:41:09 51°13.601 2°56.064 9 337 12.1 101930 82
2001-10-30 07:41:14 51°13.597 2°56.07 4.4 308 12.1 101930 82
2001-10-30 07:41:19 51°13.593 2°56.077 7.8 319 12.1 101930 82
2001-10-30 07:41:24 51°13.589 2°56.084 7.7 317 12.1 101930 82
2001-10-30 07:41:29 51°13.585 2°56.091 5.5 302 12.1 101930 82
2001-10-30 07:41:34 51°13.581 2°56.099 5.6 303 12.1 101930 82
2001-10-30 07:41:39 51°13.577 2°56.107 6.3 318 12.1 101930 82
2001-10-30 07:41:44 51°13.574 2°56.114 5.2 316 12.1 101930 82
2001-10-30 07:41:49 51°13.572 2°56.122 5.3 318 12.1 101930 82
2001-10-30 07:41:54 51°13.569 2°56.131 6.7 306 12 101930 82
2001-10-30 07:41:59 51°13.567 2°56.139 5.5 294 12 101930 82
2001-10-30 07:42:04 51°13.565 2°56.148 6.1 303 12 101930 82
2001-10-30 07:42:09 51°13.563 2°56.157 4.5 296 12 101930 82
2001-10-30 07:42:14 51°13.562 2°56.166 5.3 291 12.1 101930 82
2001-10-30 07:42:19 51°13.56 2°56.176 4.1 286 12.1 101930 82
2001-10-30 07:42:24 51°13.559 2°56.186 4.5 318 12.1 101930 82
2001-10-30 07:42:29 51°13.558 2°56.195 3.5 247 12.1 101930 82
2001-10-30 07:42:34 51°13.557 2°56.205 3.8 295 12.1 101940 82
2001-10-30 07:42:39 51°13.556 2°56.214 3.9 294 12.1 101940 82
2001-10-30 07:42:44 51°13.555 2°56.223 4.2 290 12.1 101930 82
2001-10-30 07:42:49 51°13.554 2°56.234 4.7 286 12.1 101930 82
2001-10-30 07:42:54 51°13.551 2°56.244 5 312 12 101930 82
2001-10-30 07:42:59 51°13.55 2°56.253 5.1 300 12 101930 82
2001-10-30 07:43:04 51°13.547 2°56.261 4.4 309 12 101930 82
2001-10-30 07:43:09 51°13.544 2°56.27 4.9 322 12 101930 82
2001-10-30 07:43:14 51°13.54 2°56.276 6.7 318 12 101930 82
2001-10-30 07:43:19 51°13.536 2°56.282 4 309 12 101930 82
2001-10-30 07:43:24 51°13.533 2°56.287 3.5 316 12.1 101930 82
2001-10-30 07:43:29 51°13.53 2°56.29 5.2 335 12.1 101930 82
2001-10-30 07:43:34 51°13.527 2°56.293 4.6 349 12.1 101940 82
2001-10-30 07:43:39 51°13.525 2°56.295 3.5 321 12.1 101940 82
2001-10-30 07:43:44 51°13.523 2°56.297 3 317 12.1 101930 82
2001-10-30 07:43:49 51°13.521 2°56.298 5.7 335 12.1 101930 82
2001-10-30 07:43:54 51°13.521 2°56.298 4.9 332 12 101940 82
2001-10-30 07:43:59 51°13.521 2°56.299 5.8 335 12 101940 82
2001-10-30 07:44:04 51°13.521 2°56.298 4.4 330 12 101940 82
2001-10-30 07:44:09 51°13.523 2°56.298 3.4 352 12 101940 82
2001-10-30 07:44:14 51°13.524 2°56.298 3.9 343 12.1 101930 82
2001-10-30 07:44:19 51°13.525 2°56.298 4 344 12.1 101930 82
2001-10-30 07:44:25 51°13.526 2°56.298 3.7 336 12.1 101940 82
2001-10-30 07:44:30 51°13.525 2°56.298 6.8 349 12.1 101940 82
2001-10-30 07:44:35 51°13.524 2°56.298 7.1 340 12.1 101930 82
2001-10-30 07:44:40 51°13.522 2°56.296 5.7 344 12.1 101930 82
2001-10-30 07:44:45 51°13.52 2°56.295 8.1 6 12.1 101940 82
2001-10-30 07:44:49 51°13.519 2°56.292 7.1 353 12.1 101940 82
2001-10-30 07:44:54 51°13.517 2°56.291 6.1 21 12.1 101930 82
2001-10-30 07:44:59 51°13.514 2°56.288 6.8 18 12.1 101930 82
2001-10-30 07:45:04 51°13.512 2°56.286 5 34 12.1 101930 82
2001-10-30 07:45:09 51°13.511 2°56.283 5 27 12.1 101930 82
2001-10-30 07:45:14 51°13.51 2°56.281 7.8 7 12.1 101930 82
2001-10-30 07:45:19 51°13.509 2°56.279 2.1 38 12.1 101930 82
2001-10-30 07:45:24 51°13.508 2°56.278 2.4 32 12.1 101930 82
2001-10-30 07:45:29 51°13.508 2°56.277 0.7 129 12.1 101930 82
2001-10-30 07:45:34 51°13.509 2°56.276 0.4 63 12.1 101940 82
2001-10-30 07:45:39 51°13.509 2°56.276 2.6 45 12.1 101940 82
2001-10-30 07:45:44 51°13.509 2°56.277 1.3 86 12.1 101940 82
2001-10-30 07:45:49 51°13.509 2°56.277 2.4 43 12.1 101940 82
2001-10-30 07:45:54 51°13.51 2°56.277 1.7 53 12.1 101940 82
2001-10-30 07:45:59 51°13.51 2°56.276 1.2 127 12.1 101940 82
2001-10-30 07:46:04 51°13.51 2°56.273 3.3 98 12.1 101940 82
2001-10-30 07:46:09 51°13.51 2°56.269 3.7 264 12.1 101940 82
2001-10-30 07:46:14 51°13.51 2°56.264 1.7 24 12.1 101940 82
2001-10-30 07:46:19 51°13.511 2°56.257 1.7 7 12.1 101940 82
2001-10-30 07:46:24 51°13.512 2°56.249 1.9 187 12.1 101940 82
2001-10-30 07:46:29 51°13.514 2°56.241 1.6 28 12.1 101940 82
2001-10-30 07:46:34 51°13.516 2°56.232 1.8 185 12.1 101940 82
2001-10-30 07:46:39 51°13.519 2°56.222 1.1 11 12.1 101940 82
2001-10-30 07:46:44 51°13.522 2°56.213 1.5 14 12.1 101940 82
2001-10-30 07:46:49 51°13.526 2°56.203 1.2 100 12.1 101940 82
2001-10-30 07:46:54 51°13.529 2°56.194 1.5 78 12.1 101950 82
2001-10-30 07:46:59 51°13.533 2°56.185 1.4 85 12.1 101950 82
2001-10-30 07:47:04 51°13.536 2°56.176 0.9 101 12.1 101930 82
2001-10-30 07:47:09 51°13.539 2°56.167 0.6 51 12.1 101930 82
2001-10-30 07:47:14 51°13.543 2°56.159 0.8 34 12.1 101930 82
2001-10-30 07:47:19 51°13.546 2°56.151 1.8 352 12.1 101930 82
2001-10-30 07:47:24 51°13.549 2°56.143 2.8 30 12.1 101940 82
2001-10-30 07:47:29 51°13.552 2°56.135 1 108 12.1 101940 82
2001-10-30 07:47:34 51°13.555 2°56.127 0.7 106 12.1 101940 82
2001-10-30 07:47:39 51°13.558 2°56.119 1.3 110 12.1 101940 82
2001-10-30 07:47:44 51°13.561 2°56.111 1.1 24 12.1 101940 82
2001-10-30 07:47:49 51°13.563 2°56.103 2.1 64 12.1 101940 82
2001-10-30 07:47:54 51°13.566 2°56.096 2.1 67 12.1 101940 82
2001-10-30 07:47:59 51°13.569 2°56.088 1 88 12.1 101940 82
2001-10-30 07:48:04 51°13.572 2°56.08 1.2 54 12.1 101940 82
2001-10-30 07:48:09 51°13.575 2°56.073 1.6 55 12.1 101940 82
2001-10-30 07:48:14 51°13.578 2°56.065 2 2 12.1 101940 82
2001-10-30 07:48:19 51°13.581 2°56.058 0.5 78 12.1 101940 82
2001-10-30 07:48:24 51°13.583 2°56.051 2 46 12.1 101940 82
2001-10-30 07:48:29 51°13.586 2°56.043 1.6 36 12.1 101940 82
2001-10-30 07:48:34 51°13.589 2°56.036 2.5 39 12.1 101940 82
2001-10-30 07:48:39 51°13.592 2°56.029 1.8 13 12.1 101940 82
2001-10-30 07:48:44 51°13.595 2°56.022 0.9 78 12.1 101940 82
2001-10-30 07:48:49 51°13.598 2°56.015 2 233 12.1 101940 82
2001-10-30 07:48:54 51°13.601 2°56.007 2.6 253 12.1 101940 82
2001-10-30 07:48:59 51°13.604 2°56 3.1 96 12.1 101940 82
2001-10-30 07:49:04 51°13.606 2°55.992 1.1 5 12.1 101940 82
2001-10-30 07:49:09 51°13.609 2°55.985 2.1 122 12.1 101940 82
2001-10-30 07:49:14 51°13.612 2°55.978 2.6 80 12.1 101930 82
2001-10-30 07:49:19 51°13.614 2°55.971 0.8 39 12.1 101930 82
2001-10-30 07:49:24 51°13.617 2°55.963 1.5 327 12.1 101940 82
2001-10-30 07:49:29 51°13.619 2°55.956 1.2 71 12.1 101940 82
2001-10-30 07:49:34 51°13.622 2°55.949 0.9 58 12.1 101940 82
2001-10-30 07:49:39 51°13.625 2°55.941 0.7 56 12.1 101940 82
2001-10-30 07:49:44 51°13.628 2°55.934 2.8 8 12.1 101940 82
2001-10-30 07:49:49 51°13.632 2°55.925 2.3 352 12.1 101940 82
2001-10-30 07:49:54 51°13.635 2°55.916 1.2 7 12.1 101940 82
2001-10-30 07:49:59 51°13.639 2°55.907 1.1 272 12.1 101940 82
2001-10-30 07:50:04 51°13.644 2°55.896 2.3 7 12.1 101930 82
2001-10-30 07:50:09 51°13.648 2°55.885 2.1 33 12.1 101930 82
2001-10-30 07:50:14 51°13.653 2°55.874 0.8 71 12.1 101930 82
2001-10-30 07:50:19 51°13.658 2°55.862 1.8 1 12.1 101930 82
2001-10-30 07:50:24 51°13.664 2°55.85 1.9 11 12.1 101930 82
2001-10-30 07:50:32 51°13.673 2°55.83 1.5 43 12.1 101930 82
2001-10-30 07:50:37 51°13.68 2°55.817 1.5 23 12.1 101930 82
2001-10-30 07:50:42 51°13.686 2°55.804 1.9 348 12.1 101930 82
2001-10-30 07:50:47 51°13.693 2°55.792 2.8 258 12.1 101930 82
2001-10-30 07:50:52 51°13.7 2°55.779 1.1 288 12.1 101930 82
2001-10-30 07:50:57 51°13.707 2°55.766 1.5 28 12.1 101930 82
2001-10-30 07:51:02 51°13.715 2°55.753 2.3 289 12.1 101930 82
2001-10-30 07:51:07 51°13.723 2°55.74 2.1 175 12.1 101930 82
2001-10-30 07:51:12 51°13.731 2°55.728 1.1 104 12.1 101930 82
2001-10-30 07:51:17 51°13.74 2°55.716 1.8 91 12.1 101940 82
2001-10-30 07:51:22 51°13.749 2°55.705 3.4 131 12.1 101940 82
2001-10-30 07:51:27 51°13.758 2°55.695 2.1 173 12.1 101940 82
2001-10-30 07:51:32 51°13.768 2°55.685 2 98 12.1 101940 82
2001-10-30 07:51:37 51°13.778 2°55.675 1.2 101 12.1 101930 82
2001-10-30 07:51:42 51°13.788 2°55.667 1.7 27 12.1 101930 82
2001-10-30 07:51:47 51°13.798 2°55.658 1.7 33 12.1 101940 82
2001-10-30 07:51:52 51°13.809 2°55.65 1 49 12.1 101940 82
2001-10-30 07:51:57 51°13.82 2°55.642 0.6 122 12.1 101930 82
2001-10-30 07:52:02 51°13.83 2°55.634 0.7 107 12.1 101930 82
2001-10-30 07:52:07 51°13.841 2°55.625 0.6 70 12.1 101930 82
2001-10-30 07:52:12 51°13.852 2°55.617 0.3 66 12.1 101930 82
2001-10-30 07:52:17 51°13.863 2°55.609 1.8 31 12.1 101920 82
2001-10-30 07:52:22 51°13.873 2°55.601 0.9 112 12.1 101920 82
2001-10-30 07:52:27 51°13.884 2°55.592 0.9 114 12.1 101930 82
2001-10-30 07:52:32 51°13.895 2°55.584 1.8 98 12.1 101930 82
2001-10-30 07:52:37 51°13.906 2°55.577 2.4 62 12.2 101920 82
2001-10-30 07:52:42 51°13.918 2°55.569 2.6 81 12.2 101920 82
2001-10-30 07:52:47 51°13.929 2°55.562 2.2 108 12.2 101920 82
2001-10-30 07:52:52 51°13.94 2°55.554 2 118 12.2 101920 82
2001-10-30 07:52:57 51°13.952 2°55.547 1.2 62 12.2 101930 82
2001-10-30 07:53:02 51°13.963 2°55.54 0.9 109 12.2 101930 82
2001-10-30 07:53:07 51°13.974 2°55.532 1.2 65 12.2 101920 81
2001-10-30 07:53:12 51°13.986 2°55.525 1.6 98 12.2 101920 81
2001-10-30 07:53:17 51°13.998 2°55.516 2.4 95 12.2 101930 81
2001-10-30 07:53:22 51°14.01 2°55.507 3.3 94 12.2 101930 81
2001-10-30 07:53:27 51°14.023 2°55.498 1.5 78 12.2 101920 81
2001-10-30 07:53:32 51°14.035 2°55.489 1.2 109 12.2 101920 81
2001-10-30 07:53:37 51°14.048 2°55.48 1.3 107 12.2 101930 81
2001-10-30 07:53:42 51°14.061 2°55.471 1.6 91 12.2 101930 81
2001-10-30 07:53:47 51°14.074 2°55.462 0.9 134 12.2 101920 81
2001-10-30 07:53:52 51°14.087 2°55.452 1 99 12.2 101920 81
2001-10-30 07:53:57 51°14.099 2°55.441 0.8 132 12.2 101920 81
2001-10-30 07:54:02 51°14.112 2°55.43 0.7 64 12.2 101920 81
2001-10-30 07:54:07 51°14.125 2°55.42 1 35 12.2 101930 81
2001-10-30 07:54:12 51°14.138 2°55.409 1.2 101 12.2 101930 81
2001-10-30 07:54:17 51°14.15 2°55.398 2.2 116 12.2 101920 81
2001-10-30 07:54:22 51°14.162 2°55.387 0.8 45 12.2 101920 81
2001-10-30 07:54:27 51°14.175 2°55.375 0.6 104 12.2 101920 81
2001-10-30 07:54:32 51°14.186 2°55.362 1.1 32 12.2 101920 81
2001-10-30 07:54:37 51°14.198 2°55.35 0.8 66 12.2 101920 81
2001-10-30 07:54:42 51°14.21 2°55.336 2 316 12.2 101920 81
2001-10-30 07:54:47 51°14.221 2°55.322 0.9 34 12.2 101920 81
2001-10-30 07:54:52 51°14.232 2°55.308 2.1 29 12.2 101920 81
2001-10-30 07:54:57 51°14.243 2°55.293 1.8 44 12.2 101920 81
2001-10-30 07:55:02 51°14.253 2°55.277 1.5 64 12.2 101920 81
2001-10-30 07:55:07 51°14.263 2°55.262 2.3 35 12.3 101910 81
2001-10-30 07:55:12 51°14.273 2°55.245 2.8 97 12.3 101910 81
2001-10-30 07:55:17 51°14.283 2°55.229 2.1 49 12.3 101920 81
2001-10-30 07:55:22 51°14.293 2°55.212 1.6 103 12.3 101920 81
2001-10-30 07:55:27 51°14.302 2°55.195 0.8 34 12.3 101910 81
2001-10-30 07:55:32 51°14.312 2°55.177 1.5 117 12.3 101910 81
2001-10-30 07:55:37 51°14.321 2°55.159 1.3 74 12.3 101910 81
2001-10-30 07:55:42 51°14.33 2°55.141 2.8 78 12.3 101910 81
2001-10-30 07:55:47 51°14.339 2°55.123 1.4 6 12.3 101910 81
2001-10-30 07:55:52 51°14.347 2°55.104 2.8 256 12.3 101910 81
2001-10-30 07:55:57 51°14.356 2°55.085 1.1 233 12.3 101910 80
2001-10-30 07:56:02 51°14.364 2°55.065 3.2 312 12.3 101910 80
2001-10-30 07:56:07 51°14.373 2°55.046 3 105 12.3 101900 80
2001-10-30 07:56:12 51°14.381 2°55.026 2.7 109 12.3 101900 80
2001-10-30 07:56:17 51°14.39 2°55.007 2.7 95 12.3 101900 80
2001-10-30 07:56:22 51°14.399 2°54.988 1.9 64 12.3 101900 80
2001-10-30 07:56:27 51°14.408 2°54.969 1.1 81 12.3 101900 81
2001-10-30 07:56:32 51°14.418 2°54.951 1.2 70 12.3 101900 81
2001-10-30 07:56:37 51°14.429 2°54.934 1.3 101 12.3 101910 80
2001-10-30 07:56:42 51°14.441 2°54.918 1.6 324 12.3 101910 80
2001-10-30 07:56:47 51°14.454 2°54.903 1.2 320 12.3 101910 80
2001-10-30 07:56:52 51°14.466 2°54.888 1.5 104 12.3 101910 80
2001-10-30 07:56:57 51°14.479 2°54.873 2.7 125 12.3 101900 80
2001-10-30 07:57:02 51°14.492 2°54.857 1.4 113 12.3 101900 80
2001-10-30 07:57:07 51°14.505 2°54.841 2.1 221 12.3 101900 80
2001-10-30 07:57:12 51°14.518 2°54.825 1.3 239 12.3 101900 80
2001-10-30 07:57:17 51°14.532 2°54.809 1.7 76 12.3 101900 80
2001-10-30 07:57:22 51°14.546 2°54.792 1.9 25 12.3 101900 80
2001-10-30 07:57:27 51°14.56 2°54.776 0.8 83 12.4 101910 80
2001-10-30 07:57:32 51°14.574 2°54.76 2.1 69 12.4 101910 80
2001-10-30 07:57:37 51°14.588 2°54.744 1.7 71 12.4 101910 80
2001-10-30 07:57:42 51°14.602 2°54.727 1.1 60 12.4 101910 80
2001-10-30 07:57:47 51°14.617 2°54.711 0.5 34 12.4 101900 80
2001-10-30 07:57:52 51°14.631 2°54.695 0.8 213 12.4 101900 80
2001-10-30 07:57:57 51°14.646 2°54.68 0.7 130 12.4 101910 80
2001-10-30 07:58:02 51°14.66 2°54.664 1.1 61 12.4 101910 80
2001-10-30 07:58:07 51°14.675 2°54.649 1 75 12.4 101910 81
2001-10-30 07:58:12 51°14.69 2°54.634 1.5 69 12.4 101910 81
2001-10-30 07:58:17 51°14.704 2°54.619 2 71 12.4 101910 81
2001-10-30 07:58:22 51°14.72 2°54.604 0.9 63 12.4 101910 81
2001-10-30 07:58:27 51°14.734 2°54.59 0.9 105 12.4 101910 81
2001-10-30 07:58:32 51°14.749 2°54.575 1.5 86 12.4 101910 81
2001-10-30 07:58:37 51°14.764 2°54.56 1.3 91 12.4 101900 81
2001-10-30 07:58:42 51°14.778 2°54.544 1.4 75 12.4 101900 81
2001-10-30 07:58:47 51°14.793 2°54.529 2.9 98 12.5 101910 81
2001-10-30 07:58:52 51°14.807 2°54.513 3.2 92 12.5 101910 81
2001-10-30 07:58:57 51°14.822 2°54.498 1.2 94 12.5 101900 81
2001-10-30 07:59:02 51°14.836 2°54.482 1.3 65 12.5 101900 81
2001-10-30 07:59:07 51°14.85 2°54.466 1.5 64 12.5 101910 81
2001-10-30 07:59:12 51°14.864 2°54.45 1.6 68 12.5 101910 81
2001-10-30 07:59:17 51°14.878 2°54.434 1.4 59 12.5 101910 81
2001-10-30 07:59:22 51°14.892 2°54.417 1.6 96 12.5 101910 81
2001-10-30 07:59:27 51°14.906 2°54.401 1.5 353 12.5 101910 80
2001-10-30 07:59:32 51°14.92 2°54.384 1.2 85 12.5 101910 80
2001-10-30 07:59:37 51°14.934 2°54.369 0.7 27 12.5 101910 81
2001-10-30 07:59:42 51°14.948 2°54.353 1.3 63 12.5 101910 81
2001-10-30 07:59:47 51°14.962 2°54.337 1 202 12.5 101900 81
2001-10-30 07:59:52 51°14.976 2°54.321 0.5 76 12.5 101900 81
2001-10-30 07:59:57 51°14.99 2°54.306 1.9 13 12.5 101910 81
2001-10-30 08:00:02 51°15.004 2°54.291 1.8 84 12.5 101910 81
2001-10-30 08:00:07 51°15.018 2°54.276 2.8 88 12.5 101910 81
2001-10-30 08:00:12 51°15.032 2°54.26 1 65 12.5 101910 81
2001-10-30 08:00:17 51°15.046 2°54.245 1.7 82 12.5 101910 81
2001-10-30 08:00:22 51°15.06 2°54.229 1.8 75 12.5 101910 81
2001-10-30 08:00:27 51°15.074 2°54.214 1.9 76 12.5 101910 81
2001-10-30 08:00:32 51°15.089 2°54.199 2 83 12.5 101910 81
2001-10-30 08:00:37 51°15.103 2°54.184 2.4 82 12.5 101920 81
2001-10-30 08:00:42 51°15.117 2°54.169 2.1 75 12.5 101920 81
2001-10-30 08:00:47 51°15.132 2°54.153 0.7 64 12.5 101910 81
2001-10-30 08:00:52 51°15.147 2°54.14 2.3 97 12.5 101910 81
2001-10-30 08:00:57 51°15.163 2°54.126 1.4 72 12.6 101910 81
2001-10-30 08:01:02 51°15.179 2°54.112 2 104 12.6 101910 81
2001-10-30 08:01:06 51°15.191 2°54.101 1.4 70 12.6 101900 81
2001-10-30 08:01:12 51°15.209 2°54.083 0.8 163 12.6 101900 81
2001-10-30 08:01:17 51°15.225 2°54.069 0.6 69 12.6 101910 81
2001-10-30 08:01:22 51°15.24 2°54.053 2.1 81 12.6 101910 81
2001-10-30 08:01:27 51°15.255 2°54.038 0.6 74 12.5 101910 81
2001-10-30 08:01:32 51°15.27 2°54.021 1.5 71 12.5 101910 81
2001-10-30 08:01:37 51°15.286 2°54.006 1.1 85 12.6 101910 81
2001-10-30 08:01:42 51°15.302 2°53.992 1 114 12.6 101910 81
2001-10-30 08:01:47 51°15.318 2°53.978 2.4 93 12.6 101910 82
2001-10-30 08:01:52 51°15.334 2°53.964 1.8 76 12.6 101910 82
2001-10-30 08:01:57 51°15.349 2°53.949 1.1 69 12.6 101910 82
2001-10-30 08:02:02 51°15.365 2°53.934 1.4 63 12.6 101910 82
2001-10-30 08:02:07 51°15.381 2°53.919 2 91 12.6 101920 82
2001-10-30 08:02:12 51°15.397 2°53.904 1.1 78 12.6 101920 82
2001-10-30 08:02:17 51°15.413 2°53.889 1.5 338 12.6 101920 82
2001-10-30 08:02:22 51°15.428 2°53.874 2.8 64 12.6 101920 82
2001-10-30 08:02:27 51°15.444 2°53.859 2.2 81 12.6 101910 82
2001-10-30 08:02:32 51°15.461 2°53.846 3.4 93 12.6 101910 82
2001-10-30 08:02:37 51°15.477 2°53.834 5.2 100 12.6 101900 82
2001-10-30 08:02:42 51°15.494 2°53.82 4.8 110 12.6 101900 82
2001-10-30 08:02:47 51°15.51 2°53.806 2.6 76 12.7 101910 82
2001-10-30 08:02:52 51°15.526 2°53.792 1.7 98 12.7 101910 82
2001-10-30 08:02:57 51°15.542 2°53.778 0.8 61 12.6 101930 81
2001-10-30 08:03:02 51°15.558 2°53.764 0.8 64 12.6 101930 81
2001-10-30 08:03:07 51°15.574 2°53.749 1.7 84 12.6 101910 81
2001-10-30 08:03:12 51°15.59 2°53.735 1.5 70 12.6 101910 81
2001-10-30 08:03:17 51°15.606 2°53.72 1.2 81 12.6 101910 82
2001-10-30 08:03:22 51°15.622 2°53.706 2.4 105 12.6 101910 82
2001-10-30 08:03:27 51°15.638 2°53.69 1.6 73 12.6 101920 82
2001-10-30 08:03:32 51°15.654 2°53.676 2.4 102 12.6 101920 82
2001-10-30 08:03:37 51°15.671 2°53.662 1.8 75 12.7 101910 82
2001-10-30 08:03:42 51°15.687 2°53.648 1.4 79 12.7 101910 82
2001-10-30 08:03:47 51°15.703 2°53.635 0.4 95 12.7 101910 82
2001-10-30 08:03:52 51°15.72 2°53.622 2.7 82 12.7 101910 82
2001-10-30 08:03:57 51°15.736 2°53.609 1.2 128 12.7 101920 82
2001-10-30 08:04:02 51°15.753 2°53.596 0.7 108 12.7 101920 82
2001-10-30 08:04:07 51°15.769 2°53.583 2.9 107 12.7 101920 82
2001-10-30 08:04:12 51°15.785 2°53.57 0.8 94 12.7 101920 82
2001-10-30 08:04:17 51°15.801 2°53.557 1.8 127 12.7 101920 82
2001-10-30 08:04:22 51°15.817 2°53.544 3.1 103 12.7 101920 82
2001-10-30 08:04:27 51°15.832 2°53.53 2.5 83 12.7 101910 83
2001-10-30 08:04:32 51°15.848 2°53.519 3.2 99 12.7 101910 83
2001-10-30 08:04:37 51°15.862 2°53.506 4.5 100 12.7 101920 82
2001-10-30 08:04:42 51°15.877 2°53.495 2.1 81 12.7 101920 82
2001-10-30 08:04:47 51°15.891 2°53.483 1.8 94 12.7 101910 82
2001-10-30 08:04:52 51°15.906 2°53.471 1.1 63 12.7 101910 82
2001-10-30 08:04:57 51°15.921 2°53.458 2.7 99 12.7 101920 82
2001-10-30 08:05:02 51°15.936 2°53.446 0.8 63 12.7 101920 82
2001-10-30 08:05:07 51°15.952 2°53.433 2.1 87 12.7 101920 82
2001-10-30 08:05:12 51°15.968 2°53.42 1.7 79 12.7 101920 82
2001-10-30 08:05:17 51°15.984 2°53.407 0.7 70 12.7 101910 82
2001-10-30 08:05:22 51°15.999 2°53.394 0.7 94 12.7 101910 82
2001-10-30 08:05:27 51°16.016 2°53.382 1.3 49 12.7 101910 82
2001-10-30 08:05:32 51°16.032 2°53.37 2 78 12.7 101910 82
2001-10-30 08:05:37 51°16.048 2°53.357 2.9 93 12.8 101920 82
2001-10-30 08:05:42 51°16.064 2°53.344 1.5 87 12.8 101920 82
2001-10-30 08:05:46 51°16.078 2°53.335 2 81 12.7 101910 82
2001-10-30 08:05:52 51°16.097 2°53.319 1.9 84 12.7 101910 82
2001-10-30 08:05:57 51°16.114 2°53.307 2 108 12.7 101910 82
2001-10-30 08:06:02 51°16.131 2°53.294 1.1 57 12.7 101910 82
2001-10-30 08:06:07 51°16.147 2°53.281 1.7 60 12.7 101910 81
2001-10-30 08:06:12 51°16.164 2°53.268 2.6 89 12.7 101910 81
2001-10-30 08:06:17 51°16.18 2°53.255 1.4 89 12.7 101910 81
2001-10-30 08:06:22 51°16.196 2°53.241 1.8 54 12.7 101910 81
2001-10-30 08:06:27 51°16.212 2°53.228 2.6 87 12.7 101900 81
2001-10-30 08:06:32 51°16.229 2°53.215 1.1 67 12.7 101900 81
2001-10-30 08:06:37 51°16.245 2°53.202 1.5 78 12.8 101920 80
2001-10-30 08:06:42 51°16.262 2°53.189 1.5 88 12.8 101920 80
2001-10-30 08:06:47 51°16.279 2°53.176 1.5 92 12.8 101910 81
2001-10-30 08:06:52 51°16.295 2°53.163 1.5 85 12.8 101910 81
2001-10-30 08:06:57 51°16.312 2°53.151 1.9 62 12.8 101910 82
2001-10-30 08:07:02 51°16.328 2°53.137 0.9 69 12.8 101910 82
2001-10-30 08:07:07 51°16.345 2°53.125 2 78 12.8 101920 81
2001-10-30 08:07:12 51°16.361 2°53.111 1.1 64 12.8 101920 81
2001-10-30 08:07:17 51°16.378 2°53.1 0.7 83 12.8 101910 81
2001-10-30 08:07:22 51°16.394 2°53.087 0.8 188 12.8 101910 81
2001-10-30 08:07:27 51°16.411 2°53.075 0.7 76 12.8 101910 81
2001-10-30 08:07:32 51°16.427 2°53.062 1.9 73 12.8 101910 81
2001-10-30 08:07:37 51°16.444 2°53.049 1 106 12.8 101910 81
2001-10-30 08:07:42 51°16.46 2°53.036 4.2 88 12.8 101910 81
2001-10-30 08:07:47 51°16.477 2°53.024 4.6 105 12.8 101910 82
2001-10-30 08:07:52 51°16.493 2°53.012 0.9 81 12.8 101910 82
2001-10-30 08:07:57 51°16.51 2°52.999 1.7 88 12.8 101920 82
2001-10-30 08:08:02 51°16.526 2°52.987 2.6 90 12.8 101920 82
2001-10-30 08:08:07 51°16.543 2°52.974 4.6 101 12.8 101910 81
2001-10-30 08:08:12 51°16.559 2°52.961 2 80 12.8 101910 81
2001-10-30 08:08:17 51°16.575 2°52.948 1.6 351 12.8 101910 81
2001-10-30 08:08:22 51°16.592 2°52.936 1 86 12.8 101910 81
2001-10-30 08:08:27 51°16.608 2°52.923 1 92 12.8 101910 81
2001-10-30 08:08:32 51°16.625 2°52.91 2.8 77 12.8 101910 81
2001-10-30 08:08:37 51°16.642 2°52.898 2.7 86 12.8 101910 82
2001-10-30 08:08:42 51°16.658 2°52.885 0.9 65 12.8 101910 82
2001-10-30 08:08:46 51°16.671 2°52.875 0.7 198 12.9 101910 82
2001-10-30 08:08:52 51°16.69 2°52.859 1 70 12.9 101910 82
2001-10-30 08:08:57 51°16.707 2°52.847 2.7 87 12.8 101910 81
2001-10-30 08:09:02 51°16.723 2°52.835 1.7 83 12.8 101910 81
2001-10-30 08:09:07 51°16.74 2°52.823 1.1 334 12.8 101910 82
2001-10-30 08:09:12 51°16.756 2°52.81 0.8 76 12.8 101910 82
2001-10-30 08:09:17 51°16.772 2°52.798 0.8 65 12.8 101910 81
2001-10-30 08:09:22 51°16.788 2°52.785 1 314 12.8 101910 81
2001-10-30 08:09:27 51°16.805 2°52.773 1.3 83 12.8 101920 82
2001-10-30 08:09:32 51°16.82 2°52.76 1.1 88 12.8 101920 82
2001-10-30 08:09:37 51°16.837 2°52.747 2.4 83 12.8 101920 82
2001-10-30 08:09:42 51°16.853 2°52.735 1.4 65 12.8 101920 82
2001-10-30 08:09:47 51°16.869 2°52.722 1.5 72 12.8 101920 82
2001-10-30 08:09:52 51°16.885 2°52.71 1.7 4 12.8 101920 82
2001-10-30 08:09:57 51°16.901 2°52.698 2.9 74 12.8 101920 82
2001-10-30 08:10:02 51°16.917 2°52.685 1.4 72 12.8 101920 82
2001-10-30 08:10:07 51°16.933 2°52.673 1.8 84 12.9 101920 82
2001-10-30 08:10:12 51°16.949 2°52.66 0.9 113 12.9 101920 82
2001-10-30 08:10:17 51°16.965 2°52.646 1 58 12.8 101930 82
2001-10-30 08:10:22 51°16.982 2°52.635 1.2 76 12.8 101930 82
2001-10-30 08:10:27 51°16.998 2°52.62 0.5 29 12.8 101920 82
2001-10-30 08:10:32 51°17.015 2°52.609 1.1 67 12.8 101920 82
2001-10-30 08:10:37 51°17.031 2°52.595 1.2 32 12.8 101920 82
2001-10-30 08:10:42 51°17.047 2°52.584 1.4 87 12.8 101920 82
2001-10-30 08:10:47 51°17.063 2°52.57 1.2 73 12.8 101920 82
2001-10-30 08:10:52 51°17.08 2°52.558 1.1 86 12.8 101920 82
2001-10-30 08:10:57 51°17.096 2°52.544 1.3 117 12.9 101920 83
2001-10-30 08:11:02 51°17.112 2°52.533 1.4 133 12.9 101920 83
2001-10-30 08:11:07 51°17.128 2°52.519 1.3 202 12.9 101910 83
2001-10-30 08:11:12 51°17.144 2°52.508 1.4 68 12.9 101910 83
2001-10-30 08:11:17 51°17.16 2°52.494 1.6 75 12.9 101920 83
2001-10-30 08:11:22 51°17.175 2°52.479 1.8 76 12.9 101920 83
2001-10-30 08:11:27 51°17.19 2°52.463 0.6 63 12.9 101910 83
2001-10-30 08:11:32 51°17.205 2°52.446 1.3 332 12.9 101910 83
2001-10-30 08:11:37 51°17.22 2°52.428 2.1 326 12.9 101920 82
2001-10-30 08:11:42 51°17.234 2°52.41 1.7 241 12.9 101920 82
2001-10-30 08:11:47 51°17.248 2°52.391 0.9 75 12.9 101910 82
2001-10-30 08:11:52 51°17.262 2°52.373 2.9 211 12.9 101910 82
2001-10-30 08:11:57 51°17.276 2°52.354 2.1 81 12.9 101910 83
2001-10-30 08:12:02 51°17.29 2°52.335 2.4 335 12.9 101910 83
2001-10-30 08:12:07 51°17.304 2°52.317 2.7 346 12.9 101900 82
2001-10-30 08:12:12 51°17.318 2°52.299 1.8 53 12.9 101900 82
2001-10-30 08:12:17 51°17.333 2°52.28 2.8 293 12.9 101910 82
2001-10-30 08:12:22 51°17.347 2°52.263 0.8 70 12.9 101910 82
2001-10-30 08:12:27 51°17.362 2°52.245 0.7 106 12.9 101910 82
2001-10-30 08:12:32 51°17.376 2°52.228 3 68 12.9 101910 82
2001-10-30 08:12:37 51°17.391 2°52.211 1.9 92 12.9 101910 82
2001-10-30 08:12:42 51°17.406 2°52.194 0.4 71 12.9 101910 82
2001-10-30 08:12:47 51°17.42 2°52.178 0.4 69 12.9 101920 81
2001-10-30 08:12:52 51°17.435 2°52.161 1.7 144 12.9 101920 81
2001-10-30 08:12:57 51°17.449 2°52.143 2 69 12.9 101910 81
2001-10-30 08:13:02 51°17.464 2°52.125 3.2 223 12.9 101910 81
2001-10-30 08:13:07 51°17.478 2°52.106 2.1 229 12.9 101900 82
2001-10-30 08:13:12 51°17.491 2°52.087 2 226 12.9 101900 82
2001-10-30 08:13:17 51°17.504 2°52.066 2.3 123 12.9 101920 82
2001-10-30 08:13:22 51°17.517 2°52.046 3.3 319 12.9 101920 82
2001-10-30 08:13:27 51°17.53 2°52.025 3.6 190 12.9 101910 82
2001-10-30 08:13:32 51°17.543 2°52.004 3.2 162 12.9 101910 82
2001-10-30 08:13:37 51°17.555 2°51.983 2.7 131 12.9 101920 82
2001-10-30 08:13:42 51°17.568 2°51.962 3.5 329 12.9 101920 82
2001-10-30 08:13:47 51°17.581 2°51.941 2.5 5 12.9 101910 82
2001-10-30 08:13:52 51°17.593 2°51.92 2.9 157 12.9 101910 82
2001-10-30 08:13:57 51°17.606 2°51.899 3.9 313 12.9 101920 82
2001-10-30 08:14:02 51°17.618 2°51.877 1.2 68 12.9 101920 82
2001-10-30 08:14:07 51°17.63 2°51.856 3.2 329 12.9 101920 82
2001-10-30 08:14:12 51°17.642 2°51.835 2.8 4 12.9 101920 82
2001-10-30 08:14:17 51°17.655 2°51.814 2.8 125 12.9 101910 83
2001-10-30 08:14:22 51°17.667 2°51.793 3 75 12.9 101910 83
2001-10-30 08:14:27 51°17.679 2°51.772 2.7 313 12.9 101920 82
2001-10-30 08:14:32 51°17.691 2°51.75 2.6 340 12.9 101920 82
2001-10-30 08:14:37 51°17.704 2°51.729 3 339 12.9 101900 83
2001-10-30 08:14:42 51°17.715 2°51.706 3.9 3 12.9 101900 83
2001-10-30 08:14:47 51°17.727 2°51.684 5 325 12.9 101900 82
2001-10-30 08:14:52 51°17.738 2°51.66 4.8 342 12.9 101900 82
2001-10-30 08:14:57 51°17.749 2°51.638 5.2 323 12.9 101910 82
2001-10-30 08:15:02 51°17.76 2°51.614 3 345 12.9 101910 82
2001-10-30 08:15:07 51°17.771 2°51.591 3.7 321 12.9 101920 83
2001-10-30 08:15:12 51°17.782 2°51.567 4.3 317 12.9 101920 83
2001-10-30 08:15:17 51°17.793 2°51.544 4.3 338 13 101910 83
2001-10-30 08:15:22 51°17.804 2°51.52 3.8 15 13 101910 83
2001-10-30 08:15:27 51°17.815 2°51.497 5.8 354 13 101920 82
2001-10-30 08:15:32 51°17.826 2°51.473 7.2 145 13 101920 82
2001-10-30 08:15:37 51°17.838 2°51.45 4.5 341 12.9 101920 82
2001-10-30 08:15:42 51°17.849 2°51.427 3.4 217 12.9 101920 82
2001-10-30 08:15:47 51°17.861 2°51.404 3.4 316 12.9 101910 82
2001-10-30 08:15:52 51°17.873 2°51.381 4 58 12.9 101910 82
2001-10-30 08:15:57 51°17.884 2°51.359 5.3 335 12.9 101910 82
2001-10-30 08:16:02 51°17.895 2°51.336 3.3 194 12.9 101910 82
2001-10-30 08:16:07 51°17.907 2°51.312 3.1 7 12.9 101910 82
2001-10-30 08:16:12 51°17.918 2°51.289 3.2 148 12.9 101910 82
2001-10-30 08:16:17 51°17.93 2°51.267 3.9 116 12.9 101910 82
2001-10-30 08:16:22 51°17.94 2°51.243 5.1 341 12.9 101910 82
2001-10-30 08:16:26 51°17.949 2°51.224 4.7 19 12.9 101920 82
2001-10-30 08:16:32 51°17.961 2°51.194 5.5 341 12.9 101920 82
2001-10-30 08:16:37 51°17.972 2°51.17 6.2 110 12.9 101920 82
2001-10-30 08:16:42 51°17.982 2°51.145 5.5 282 12.9 101920 82
2001-10-30 08:16:47 51°17.992 2°51.12 3.4 149 12.9 101920 81
2001-10-30 08:16:52 51°18.002 2°51.096 6 109 12.9 101920 81
2001-10-30 08:16:57 51°18.012 2°51.072 4.8 132 13 101910 82
2001-10-30 08:17:02 51°18.022 2°51.047 4 354 13 101910 82
2001-10-30 08:17:07 51°18.033 2°51.022 3.6 335 13 101900 82
2001-10-30 08:17:12 51°18.043 2°50.997 4.5 340 13 101900 82
2001-10-30 08:17:17 51°18.054 2°50.973 4.4 328 13 101930 82
2001-10-30 08:17:22 51°18.063 2°50.948 4.8 354 13 101930 82
2001-10-30 08:17:27 51°18.074 2°50.924 3.3 144 13 101900 82
2001-10-30 08:17:32 51°18.084 2°50.899 3.7 221 13 101900 82
2001-10-30 08:17:37 51°18.094 2°50.875 2.6 112 13 101910 82
2001-10-30 08:17:42 51°18.105 2°50.85 4.7 330 13 101910 82
2001-10-30 08:17:47 51°18.115 2°50.826 3.5 213 13 101910 82
2001-10-30 08:17:52 51°18.126 2°50.801 4.1 194 13 101910 82
2001-10-30 08:17:57 51°18.136 2°50.776 4.2 330 13 101900 82
2001-10-30 08:18:02 51°18.146 2°50.752 1.5 63 13 101900 82
2001-10-30 08:18:07 51°18.157 2°50.727 4.5 295 13 101910 82
2001-10-30 08:18:12 51°18.167 2°50.703 3.6 341 13 101910 82
2001-10-30 08:18:17 51°18.178 2°50.678 3.5 337 13 101900 82
2001-10-30 08:18:22 51°18.189 2°50.653 1.8 69 13 101900 82
2001-10-30 08:18:27 51°18.198 2°50.629 5.8 286 13 101900 82
2001-10-30 08:18:32 51°18.209 2°50.604 3.7 118 13 101900 82
2001-10-30 08:18:37 51°18.219 2°50.58 2.9 108 13 101910 82
2001-10-30 08:18:42 51°18.23 2°50.555 3.6 270 13 101910 82
2001-10-30 08:18:47 51°18.24 2°50.531 2.5 255 13 101910 82
2001-10-30 08:18:52 51°18.25 2°50.506 3.6 335 13 101910 82
2001-10-30 08:18:57 51°18.261 2°50.482 3.5 321 13 101910 82
2001-10-30 08:19:02 51°18.271 2°50.458 4.5 336 13 101910 82
2001-10-30 08:19:07 51°18.281 2°50.433 5.8 125 13 101920 82
2001-10-30 08:19:12 51°18.291 2°50.409 3.8 290 13 101920 82
2001-10-30 08:19:17 51°18.302 2°50.384 4 20 13 101910 82
2001-10-30 08:19:22 51°18.312 2°50.36 3.6 129 13 101910 82
2001-10-30 08:19:27 51°18.322 2°50.335 3.1 252 13 101900 82
2001-10-30 08:19:32 51°18.332 2°50.31 4.3 129 13 101900 82
2001-10-30 08:19:37 51°18.343 2°50.285 4.4 350 13 101900 82
2001-10-30 08:19:42 51°18.353 2°50.26 2.6 346 13 101900 82
2001-10-30 08:19:47 51°18.363 2°50.235 2.8 211 13 101910 82
2001-10-30 08:19:52 51°18.373 2°50.211 6.6 317 13 101910 82
2001-10-30 08:19:57 51°18.384 2°50.185 4.1 143 13 101910 82
2001-10-30 08:20:02 51°18.394 2°50.161 3.9 105 13 101910 82
2001-10-30 08:20:06 51°18.402 2°50.141 7.8 94 13 101890 82
2001-10-30 08:20:12 51°18.414 2°50.111 5.2 349 13 101890 82
2001-10-30 08:20:17 51°18.424 2°50.086 6.6 166 13 101900 82
2001-10-30 08:20:22 51°18.435 2°50.061 3.6 288 13 101900 82
2001-10-30 08:20:27 51°18.445 2°50.036 3.7 352 13 101910 82
2001-10-30 08:20:32 51°18.455 2°50.011 4.9 351 13 101910 82
2001-10-30 08:20:37 51°18.466 2°49.986 4.7 342 13 101880 82
2001-10-30 08:20:42 51°18.476 2°49.961 3.8 150 13 101880 82
2001-10-30 08:20:47 51°18.486 2°49.936 3.5 332 13.1 101900 82
2001-10-30 08:20:52 51°18.496 2°49.911 3.2 357 13.1 101900 82
2001-10-30 08:20:57 51°18.507 2°49.886 3.7 199 13.1 101900 82
2001-10-30 08:21:02 51°18.517 2°49.861 4.1 128 13.1 101900 82
2001-10-30 08:21:07 51°18.527 2°49.836 1.6 218 13.1 101900 81
2001-10-30 08:21:12 51°18.538 2°49.811 3.5 160 13.1 101900 81
2001-10-30 08:21:17 51°18.548 2°49.786 4.3 342 13 101900 81
2001-10-30 08:21:22 51°18.559 2°49.761 3.6 280 13 101900 81
2001-10-30 08:21:27 51°18.569 2°49.736 3.6 31 13 101890 81
2001-10-30 08:21:32 51°18.579 2°49.711 2.8 326 13 101890 81
2001-10-30 08:21:37 51°18.59 2°49.687 5.1 135 13 101900 81
2001-10-30 08:21:42 51°18.6 2°49.661 2.8 239 13 101900 81
2001-10-30 08:21:46 51°18.609 2°49.642 2.7 157 13 101900 80
2001-10-30 08:21:52 51°18.621 2°49.612 4.6 14 13 101900 80
2001-10-30 08:21:57 51°18.632 2°49.588 3.6 324 13 101900 81
2001-10-30 08:22:02 51°18.642 2°49.562 4.8 351 13 101900 81
2001-10-30 08:22:07 51°18.653 2°49.538 4 356 13.1 101900 81
2001-10-30 08:22:12 51°18.663 2°49.513 4.8 122 13.1 101900 81
2001-10-30 08:22:17 51°18.673 2°49.488 3.9 188 13.1 101900 81
2001-10-30 08:22:22 51°18.683 2°49.464 4.3 322 13.1 101900 81
2001-10-30 08:22:27 51°18.694 2°49.439 4.5 315 13.1 101910 82
2001-10-30 08:22:32 51°18.705 2°49.415 4.4 332 13.1 101910 82
2001-10-30 08:22:37 51°18.715 2°49.39 2.3 2 13.1 101900 82
2001-10-30 08:22:42 51°18.726 2°49.365 3 350 13.1 101900 82
2001-10-30 08:22:47 51°18.736 2°49.341 3.6 2 13.1 101900 82
2001-10-30 08:22:52 51°18.747 2°49.317 2.6 342 13.1 101900 82
2001-10-30 08:22:57 51°18.758 2°49.293 2.5 18 13.1 101910 81
2001-10-30 08:23:02 51°18.769 2°49.269 2.9 315 13.1 101910 81
2001-10-30 08:23:07 51°18.78 2°49.244 1.9 157 13.1 101890 81
2001-10-30 08:23:12 51°18.79 2°49.219 4 353 13.1 101890 81
2001-10-30 08:23:17 51°18.801 2°49.194 2.4 49 13.1 101900 81
2001-10-30 08:23:22 51°18.812 2°49.17 5 159 13.1 101900 81
2001-10-30 08:23:27 51°18.823 2°49.145 6.7 160 13.1 101900 81
2001-10-30 08:23:32 51°18.834 2°49.121 4.7 332 13.1 101900 81
2001-10-30 08:23:37 51°18.844 2°49.096 2.9 166 13.1 101900 82
2001-10-30 08:23:42 51°18.855 2°49.071 3.3 127 13.1 101900 82
2001-10-30 08:23:47 51°18.866 2°49.047 4.4 105 13.1 101900 82
2001-10-30 08:23:52 51°18.876 2°49.022 7.4 145 13.1 101900 82
2001-10-30 08:23:57 51°18.887 2°48.997 7 103 13.1 101890 82
2001-10-30 08:24:02 51°18.898 2°48.972 5.3 96 13.1 101890 82
2001-10-30 08:24:07 51°18.909 2°48.948 4.4 160 13.2 101910 82
2001-10-30 08:24:12 51°18.919 2°48.924 5.5 101 13.2 101910 82
2001-10-30 08:24:17 51°18.93 2°48.899 7.7 112 13.2 101910 82
2001-10-30 08:24:22 51°18.941 2°48.874 6.1 106 13.2 101910 82
2001-10-30 08:24:27 51°18.951 2°48.85 4.2 91 13.2 101900 82
2001-10-30 08:24:32 51°18.962 2°48.825 3.6 357 13.2 101900 82
2001-10-30 08:24:37 51°18.973 2°48.801 3.3 306 13.2 101900 82
2001-10-30 08:24:42 51°18.984 2°48.776 3.2 105 13.2 101900 82
2001-10-30 08:24:47 51°18.994 2°48.751 5 92 13.2 101890 82
2001-10-30 08:24:52 51°19.005 2°48.726 3.5 110 13.2 101890 82
2001-10-30 08:24:57 51°19.015 2°48.701 3 349 13.2 101900 82
2001-10-30 08:25:02 51°19.026 2°48.677 5.2 344 13.2 101900 82
2001-10-30 08:25:07 51°19.037 2°48.652 4 183 13.2 101900 82
2001-10-30 08:25:12 51°19.048 2°48.627 3.9 115 13.2 101900 82
2001-10-30 08:25:17 51°19.058 2°48.603 5.5 331 13.2 101900 82
2001-10-30 08:25:22 51°19.069 2°48.578 4.4 130 13.2 101900 82
2001-10-30 08:25:27 51°19.08 2°48.554 3.6 182 13.2 101910 82
2001-10-30 08:25:32 51°19.091 2°48.53 5.4 323 13.2 101910 82
2001-10-30 08:25:37 51°19.101 2°48.505 5.3 108 13.2 101890 82
2001-10-30 08:25:42 51°19.112 2°48.48 5.8 96 13.2 101890 82
2001-10-30 08:25:47 51°19.122 2°48.455 4.7 332 13.2 101880 82
2001-10-30 08:25:52 51°19.133 2°48.431 4.7 122 13.2 101880 82
2001-10-30 08:25:57 51°19.143 2°48.405 4.4 343 13.2 101900 81
2001-10-30 08:26:02 51°19.153 2°48.381 8 218 13.2 101900 81
2001-10-30 08:26:07 51°19.164 2°48.355 4.1 96 13.2 101900 81
2001-10-30 08:26:12 51°19.175 2°48.331 6.8 351 13.2 101900 81
2001-10-30 08:26:17 51°19.185 2°48.306 5.4 331 13.2 101910 81
2001-10-30 08:26:22 51°19.196 2°48.282 4.4 155 13.2 101910 81
2001-10-30 08:26:27 51°19.206 2°48.257 7.1 313 13.2 101900 81
2001-10-30 08:26:32 51°19.217 2°48.232 6.7 121 13.2 101900 81
2001-10-30 08:26:37 51°19.227 2°48.207 4.4 139 13.2 101900 82
2001-10-30 08:26:42 51°19.237 2°48.182 5.9 93 13.2 101900 82
2001-10-30 08:26:46 51°19.246 2°48.162 5.4 123 13.2 101910 81
2001-10-30 08:26:52 51°19.258 2°48.132 6.8 269 13.2 101910 81
2001-10-30 08:26:57 51°19.269 2°48.108 4.1 131 13.2 101910 81
2001-10-30 08:27:02 51°19.279 2°48.083 6.2 93 13.2 101910 81
2001-10-30 08:27:07 51°19.289 2°48.058 5.2 329 13.2 101900 81
2001-10-30 08:27:12 51°19.299 2°48.033 5.3 158 13.2 101900 81
2001-10-30 08:27:17 51°19.31 2°48.009 6.3 173 13.2 101880 81
2001-10-30 08:27:22 51°19.32 2°47.983 4.6 103 13.2 101880 81
2001-10-30 08:27:27 51°19.33 2°47.958 4.4 127 13.2 101900 81
2001-10-30 08:27:32 51°19.341 2°47.932 4.9 106 13.2 101900 81
2001-10-30 08:27:37 51°19.351 2°47.907 3.9 343 13.2 101900 82
2001-10-30 08:27:42 51°19.361 2°47.882 6 328 13.2 101900 82
2001-10-30 08:27:47 51°19.371 2°47.857 6 323 13.2 101890 82
2001-10-30 08:27:52 51°19.382 2°47.832 6.5 340 13.2 101890 82
2001-10-30 08:27:57 51°19.392 2°47.806 6.8 317 13.2 101900 82
2001-10-30 08:28:02 51°19.402 2°47.781 7 65 13.2 101900 82
2001-10-30 08:28:07 51°19.413 2°47.757 5 130 13.2 101920 82
2001-10-30 08:28:12 51°19.422 2°47.731 5.7 353 13.2 101920 82
2001-10-30 08:28:17 51°19.433 2°47.706 6.1 344 13.3 101900 82
2001-10-30 08:28:22 51°19.443 2°47.681 7.7 352 13.3 101900 82
2001-10-30 08:28:27 51°19.453 2°47.656 6.9 294 13.3 101890 82
2001-10-30 08:28:32 51°19.463 2°47.63 6.6 116 13.3 101890 82
2001-10-30 08:28:37 51°19.474 2°47.605 5.6 298 13.3 101890 82
2001-10-30 08:28:42 51°19.484 2°47.579 4.3 300 13.3 101890 82
2001-10-30 08:28:47 51°19.494 2°47.554 5.5 185 13.3 101900 82
2001-10-30 08:28:52 51°19.504 2°47.529 6.9 321 13.3 101900 82
2001-10-30 08:28:57 51°19.514 2°47.503 6.9 253 13.3 101880 82
2001-10-30 08:29:02 51°19.525 2°47.477 4.9 335 13.3 101880 82
2001-10-30 08:29:06 51°19.533 2°47.457 4.7 268 13.3 101900 82
2001-10-30 08:29:12 51°19.546 2°47.427 5.3 321 13.3 101900 82
2001-10-30 08:29:17 51°19.556 2°47.401 4.7 298 13.3 101870 82
2001-10-30 08:29:22 51°19.566 2°47.375 4.4 120 13.3 101870 82
2001-10-30 08:29:27 51°19.576 2°47.349 4.8 331 13.3 101870 82
2001-10-30 08:29:32 51°19.587 2°47.324 6.5 123 13.3 101870 82
2001-10-30 08:29:37 51°19.597 2°47.298 6.2 270 13.3 101880 81
2001-10-30 08:29:42 51°19.607 2°47.273 5.8 94 13.3 101880 81
2001-10-30 08:29:47 51°19.618 2°47.248 7.9 117 13.3 101870 81
2001-10-30 08:29:52 51°19.628 2°47.222 6.5 318 13.3 101870 81
2001-10-30 08:29:57 51°19.638 2°47.197 5.1 127 13.3 101880 82
2001-10-30 08:30:02 51°19.649 2°47.171 6.8 106 13.3 101880 82
2001-10-30 08:30:07 51°19.659 2°47.146 5.2 152 13.3 101870 82
2001-10-30 08:30:12 51°19.67 2°47.121 5 126 13.3 101870 82
2001-10-30 08:30:17 51°19.68 2°47.095 5.9 294 13.3 101880 82
2001-10-30 08:30:22 51°19.69 2°47.07 7.4 337 13.3 101880 82
2001-10-30 08:30:27 51°19.701 2°47.044 4.7 131 13.4 101870 82
2001-10-30 08:30:32 51°19.711 2°47.018 5.3 320 13.4 101870 82
2001-10-30 08:30:37 51°19.721 2°46.992 5.5 95 13.4 101880 81
2001-10-30 08:30:42 51°19.731 2°46.967 7.7 293 13.4 101880 81
2001-10-30 08:30:47 51°19.742 2°46.942 6.4 129 13.4 101870 80
2001-10-30 08:30:52 51°19.753 2°46.916 6 129 13.4 101870 80
2001-10-30 08:30:57 51°19.763 2°46.89 4.8 322 13.4 101870 81
2001-10-30 08:31:02 51°19.774 2°46.866 3.8 318 13.4 101870 81
2001-10-30 08:31:07 51°19.784 2°46.84 4.5 198 13.4 101880 81
2001-10-30 08:31:12 51°19.794 2°46.815 7 93 13.4 101880 81
2001-10-30 08:31:17 51°19.804 2°46.79 7.8 332 13.4 101870 80
2001-10-30 08:31:22 51°19.815 2°46.765 5.9 319 13.4 101870 80
2001-10-30 08:31:27 51°19.825 2°46.74 5.6 108 13.4 101880 80
2001-10-30 08:31:32 51°19.836 2°46.715 7.8 184 13.4 101880 80
2001-10-30 08:31:37 51°19.845 2°46.69 5 97 13.4 101890 80
2001-10-30 08:31:42 51°19.856 2°46.665 8.6 290 13.4 101890 80
2001-10-30 08:31:47 51°19.864 2°46.638 9.7 299 13.4 101860 80
2001-10-30 08:31:52 51°19.872 2°46.61 8.7 125 13.4 101860 80
2001-10-30 08:31:57 51°19.879 2°46.582 10.3 292 13.4 101880 80
2001-10-30 08:32:02 51°19.884 2°46.553 7 42 13.4 101880 80
2001-10-30 08:32:07 51°19.889 2°46.523 10.6 18 13.5 101870 80
2001-10-30 08:32:12 51°19.894 2°46.494 8.6 38 13.5 101870 80
2001-10-30 08:32:17 51°19.899 2°46.465 7.9 38 13.5 101860 79
2001-10-30 08:32:22 51°19.902 2°46.435 10.1 5 13.5 101860 79
2001-10-30 08:32:27 51°19.907 2°46.406 7.9 37 13.5 101860 80
2001-10-30 08:32:32 51°19.911 2°46.376 10.5 11 13.5 101860 80
2001-10-30 08:32:37 51°19.916 2°46.347 11.7 15 13.5 101860 80
2001-10-30 08:32:42 51°19.922 2°46.317 10.2 44 13.5 101860 80
2001-10-30 08:32:47 51°19.927 2°46.288 10.4 44 13.5 101850 81
2001-10-30 08:32:52 51°19.933 2°46.26 9.2 18 13.5 101850 81
2001-10-30 08:32:57 51°19.94 2°46.231 8.1 34 13.5 101850 80
2001-10-30 08:33:02 51°19.947 2°46.204 6 332 13.5 101850 80
2001-10-30 08:33:07 51°19.954 2°46.175 10.3 318 13.5 101860 81
2001-10-30 08:33:12 51°19.962 2°46.148 9.6 331 13.5 101860 81
2001-10-30 08:33:17 51°19.969 2°46.12 7.2 286 13.6 101860 80
2001-10-30 08:33:22 51°19.977 2°46.093 8.8 278 13.6 101860 80
2001-10-30 08:33:27 51°19.985 2°46.065 9.6 318 13.6 101870 79
2001-10-30 08:33:32 51°19.992 2°46.038 7.8 301 13.6 101870 79
2001-10-30 08:33:37 51°19.999 2°46.01 8.3 14 13.6 101860 80
2001-10-30 08:33:42 51°20.007 2°45.982 8.8 351 13.6 101860 80
2001-10-30 08:33:47 51°20.013 2°45.954 9.7 336 13.6 101860 79
2001-10-30 08:33:52 51°20.02 2°45.926 7.2 320 13.6 101860 79
2001-10-30 08:33:57 51°20.026 2°45.897 9.9 332 13.6 101860 79
2001-10-30 08:34:02 51°20.032 2°45.869 11.4 42 13.6 101860 79
2001-10-30 08:34:07 51°20.038 2°45.84 9.9 17 13.6 101860 79
2001-10-30 08:34:12 51°20.043 2°45.811 9.8 28 13.6 101860 79
2001-10-30 08:34:17 51°20.049 2°45.782 8.7 28 13.6 101860 79
2001-10-30 08:34:22 51°20.054 2°45.753 10.9 12 13.6 101860 79
2001-10-30 08:34:27 51°20.06 2°45.724 10.4 299 13.6 101850 79
2001-10-30 08:34:32 51°20.065 2°45.695 8.7 314 13.6 101850 79
2001-10-30 08:34:37 51°20.07 2°45.666 9 46 13.6 101850 79
2001-10-30 08:34:42 51°20.076 2°45.637 10.5 23 13.6 101850 79
2001-10-30 08:34:47 51°20.081 2°45.608 8.3 324 13.6 101850 79
2001-10-30 08:34:52 51°20.086 2°45.578 9.2 231 13.6 101850 79
2001-10-30 08:34:57 51°20.092 2°45.548 9.2 353 13.6 101860 79
2001-10-30 08:35:02 51°20.097 2°45.519 10.1 343 13.6 101860 79
2001-10-30 08:35:07 51°20.103 2°45.49 8.5 248 13.6 101860 80
2001-10-30 08:35:12 51°20.109 2°45.461 8.9 318 13.6 101860 80
2001-10-30 08:35:17 51°20.114 2°45.431 9.7 351 13.6 101850 79
2001-10-30 08:35:22 51°20.12 2°45.402 9.1 237 13.6 101850 79
2001-10-30 08:35:27 51°20.126 2°45.373 9.1 15 13.7 101850 80
2001-10-30 08:35:32 51°20.131 2°45.344 9.9 255 13.7 101850 80
2001-10-30 08:35:37 51°20.137 2°45.314 9 300 13.7 101850 80
2001-10-30 08:35:42 51°20.142 2°45.285 9.2 318 13.7 101850 80
2001-10-30 08:35:47 51°20.148 2°45.255 8 8 13.7 101850 80
2001-10-30 08:35:52 51°20.154 2°45.226 7.4 325 13.7 101850 80
2001-10-30 08:35:57 51°20.159 2°45.196 9.9 29 13.7 101850 79
2001-10-30 08:36:02 51°20.165 2°45.168 8.5 259 13.7 101850 79
2001-10-30 08:36:07 51°20.171 2°45.139 8.5 38 13.7 101850 80
2001-10-30 08:36:12 51°20.176 2°45.11 10.5 36 13.7 101850 80
2001-10-30 08:36:17 51°20.182 2°45.081 9.9 320 13.7 101860 80
2001-10-30 08:36:22 51°20.187 2°45.052 8.8 350 13.7 101860 80
2001-10-30 08:36:27 51°20.193 2°45.023 10 15 13.7 101840 80
2001-10-30 08:36:32 51°20.199 2°44.993 8.8 29 13.7 101840 80
2001-10-30 08:36:37 51°20.204 2°44.964 8 60 13.7 101850 80
2001-10-30 08:36:42 51°20.21 2°44.935 10.8 18 13.7 101850 80
2001-10-30 08:36:47 51°20.215 2°44.906 10 11 13.7 101850 80
2001-10-30 08:36:52 51°20.221 2°44.877 8.6 34 13.7 101850 80
2001-10-30 08:36:57 51°20.226 2°44.847 9.1 323 13.7 101860 80
2001-10-30 08:37:02 51°20.232 2°44.818 8.4 29 13.7 101860 80
2001-10-30 08:37:07 51°20.238 2°44.789 10.8 31 13.8 101860 81
2001-10-30 08:37:12 51°20.243 2°44.76 10.4 53 13.8 101860 81
2001-10-30 08:37:17 51°20.249 2°44.73 10.9 45 13.8 101860 81
2001-10-30 08:37:22 51°20.254 2°44.701 9.9 1 13.8 101860 81
2001-10-30 08:37:27 51°20.26 2°44.672 8.2 55 13.8 101840 81
2001-10-30 08:37:32 51°20.265 2°44.642 9.6 37 13.8 101840 81
2001-10-30 08:37:37 51°20.271 2°44.613 11.5 1 13.8 101850 80
2001-10-30 08:37:42 51°20.277 2°44.584 10.3 8 13.8 101850 80
2001-10-30 08:37:47 51°20.283 2°44.554 9.3 353 13.8 101840 80
2001-10-30 08:37:52 51°20.288 2°44.525 9.7 33 13.8 101840 80
2001-10-30 08:37:57 51°20.294 2°44.495 8.9 338 13.8 101850 79
2001-10-30 08:38:02 51°20.299 2°44.466 8.9 40 13.8 101850 79
2001-10-30 08:38:07 51°20.305 2°44.436 10.7 40 13.8 101840 79
2001-10-30 08:38:12 51°20.31 2°44.407 10.8 15 13.8 101840 79
2001-10-30 08:38:17 51°20.315 2°44.377 9.3 19 13.8 101850 79
2001-10-30 08:38:22 51°20.321 2°44.348 9.1 43 13.8 101850 79
2001-10-30 08:38:27 51°20.326 2°44.319 10.6 1 13.8 101850 79
2001-10-30 08:38:32 51°20.331 2°44.289 10.1 342 13.8 101850 79
2001-10-30 08:38:37 51°20.337 2°44.26 9.6 109 13.9 101840 79
2001-10-30 08:38:42 51°20.342 2°44.23 11 21 13.9 101840 79
2001-10-30 08:38:47 51°20.348 2°44.201 9.8 21 13.9 101830 79
2001-10-30 08:38:52 51°20.353 2°44.172 10.6 34 13.9 101830 79
2001-10-30 08:38:57 51°20.358 2°44.142 10.6 41 13.9 101830 78
2001-10-30 08:39:02 51°20.363 2°44.113 9.6 18 13.9 101830 78
2001-10-30 08:39:07 51°20.368 2°44.084 9.9 338 13.9 101840 78
2001-10-30 08:39:12 51°20.373 2°44.054 8.1 43 13.9 101840 78
2001-10-30 08:39:17 51°20.377 2°44.024 10 322 14 101840 78
2001-10-30 08:39:22 51°20.382 2°43.994 11.7 17 14 101840 78
2001-10-30 08:39:27 51°20.386 2°43.965 10.3 43 14 101850 79
2001-10-30 08:39:32 51°20.391 2°43.935 9.8 322 14 101850 79
2001-10-30 08:39:37 51°20.396 2°43.906 8.1 33 14 101830 78
2001-10-30 08:39:42 51°20.401 2°43.876 9.2 323 14 101830 78
2001-10-30 08:39:47 51°20.406 2°43.847 10.3 319 14 101840 78
2001-10-30 08:39:52 51°20.41 2°43.817 11.6 10 14 101840 78
2001-10-30 08:39:57 51°20.415 2°43.788 9.3 39 14 101830 77
2001-10-30 08:40:02 51°20.42 2°43.759 9.7 325 14 101830 77
2001-10-30 08:40:07 51°20.425 2°43.73 9.3 27 14 101830 78
2001-10-30 08:40:12 51°20.429 2°43.7 7.5 23 14 101830 78
2001-10-30 08:40:17 51°20.434 2°43.671 10.2 41 14 101830 78
2001-10-30 08:40:22 51°20.439 2°43.642 11.1 40 14 101830 78
2001-10-30 08:40:27 51°20.444 2°43.613 11.6 22 14 101840 79
2001-10-30 08:40:32 51°20.449 2°43.583 10.2 33 14 101840 79
2001-10-30 08:40:37 51°20.454 2°43.555 8.7 39 14 101840 79
2001-10-30 08:40:42 51°20.459 2°43.525 10.2 28 14 101840 79
2001-10-30 08:40:47 51°20.464 2°43.497 8.5 31 14 101840 78
2001-10-30 08:40:52 51°20.468 2°43.467 9.8 37 14 101840 78
2001-10-30 08:40:57 51°20.473 2°43.439 9.3 329 14.1 101830 78
2001-10-30 08:41:02 51°20.477 2°43.41 9.9 39 14.1 101830 78
2001-10-30 08:41:07 51°20.482 2°43.381 7.5 126 14.1 101830 79
2001-10-30 08:41:12 51°20.485 2°43.352 11 348 14.1 101830 79
2001-10-30 08:41:17 51°20.49 2°43.323 11 357 14.1 101830 79
2001-10-30 08:41:22 51°20.493 2°43.293 10.5 130 14.1 101830 79
2001-10-30 08:41:27 51°20.497 2°43.264 9.8 318 14.1 101840 78
2001-10-30 08:41:32 51°20.502 2°43.235 10.1 291 14.1 101840 78
2001-10-30 08:41:37 51°20.505 2°43.205 11.6 30 14.1 101830 78
2001-10-30 08:41:42 51°20.51 2°43.176 11 35 14.1 101830 78
2001-10-30 08:41:47 51°20.514 2°43.146 10.1 337 14.1 101840 77
2001-10-30 08:41:52 51°20.518 2°43.118 12.8 30 14.1 101840 77
2001-10-30 08:41:57 51°20.522 2°43.089 11.9 44 14.1 101820 77
2001-10-30 08:42:02 51°20.526 2°43.059 11.8 335 14.1 101820 77